createdAt,value
2022-10-13T00:00:59.772Z,76.81
2022-10-13T00:04:08.036Z,76.94
2022-10-13T00:07:10.629Z,77.00
2022-10-13T00:10:13.336Z,77.10
2022-10-13T00:13:20.652Z,77.18
2022-10-13T00:16:24.251Z,77.33
2022-10-13T00:19:27.802Z,77.38
2022-10-13T00:22:30.504Z,77.27
2022-10-13T00:25:33.100Z,77.24
2022-10-13T00:28:36.974Z,77.34
2022-10-13T00:31:40.086Z,77.46
2022-10-13T00:34:43.682Z,77.65
2022-10-13T00:37:46.407Z,77.67
2022-10-13T00:40:56.310Z,77.79
2022-10-13T00:44:05.066Z,77.85
2022-10-13T00:47:08.602Z,78.08
2022-10-13T00:50:16.515Z,78.31
2022-10-13T00:53:24.567Z,78.48
2022-10-13T00:56:28.236Z,78.62
2022-10-13T00:59:31.079Z,78.62
2022-10-13T01:02:39.181Z,78.73
2022-10-13T01:05:45.394Z,78.71
2022-10-13T01:08:48.303Z,78.71
2022-10-13T01:12:28.585Z,78.76
2022-10-13T01:15:52.158Z,78.78
2022-10-13T01:18:54.707Z,78.60
2022-10-13T01:22:38.027Z,78.64
2022-10-13T01:26:19.606Z,78.62
2022-10-13T01:30:01.797Z,78.79
2022-10-13T01:33:13.614Z,78.75
2022-10-13T01:36:22.028Z,78.57
2022-10-13T01:39:39.492Z,78.55
2022-10-13T01:43:10.192Z,78.56
2022-10-13T01:46:17.709Z,78.75
2022-10-13T01:49:26.716Z,79.11
2022-10-13T01:52:35.277Z,79.31
2022-10-13T01:55:49.200Z,79.64
2022-10-13T01:58:53.293Z,79.84
2022-10-13T02:02:06.368Z,79.87
2022-10-13T02:05:14.066Z,79.68
2022-10-13T02:08:34.424Z,79.62
2022-10-13T02:11:43.275Z,79.53
2022-10-13T02:14:48.338Z,79.31
2022-10-13T02:17:52.638Z,79.13
2022-10-13T02:20:55.398Z,79.05
2022-10-13T02:23:58.638Z,78.90
2022-10-13T02:27:01.428Z,78.98
2022-10-13T02:30:05.426Z,79.17
2022-10-13T02:33:09.231Z,79.18
2022-10-13T02:36:13.376Z,79.24
2022-10-13T02:39:16.060Z,79.27
2022-10-13T02:42:19.279Z,79.24
2022-10-13T02:45:22.557Z,79.29
2022-10-13T02:48:25.335Z,79.34
2022-10-13T02:51:28.010Z,79.25
2022-10-13T02:54:30.723Z,79.15
2022-10-13T02:57:33.608Z,78.98
2022-10-13T03:00:37.512Z,78.85
2022-10-13T03:03:40.677Z,78.83
2022-10-13T03:06:43.243Z,78.93
2022-10-13T03:09:46.550Z,78.94
2022-10-13T03:12:49.328Z,78.87
2022-10-13T03:15:51.978Z,78.89
2022-10-13T03:18:54.746Z,78.86
2022-10-13T03:21:57.687Z,78.92
2022-10-13T03:25:00.548Z,78.83
2022-10-13T03:28:03.218Z,78.80
2022-10-13T03:31:08.233Z,78.98
2022-10-13T03:34:12.738Z,79.06
2022-10-13T03:37:15.451Z,79.04
2022-10-13T03:40:19.104Z,79.11
2022-10-13T03:43:22.042Z,79.18
2022-10-13T03:46:28.160Z,79.13
2022-10-13T03:49:31.546Z,79.26
2022-10-13T03:52:34.408Z,79.31
2022-10-13T03:55:37.129Z,79.25
2022-10-13T03:58:39.789Z,79.33
2022-10-13T04:01:42.616Z,79.51
2022-10-13T04:04:45.516Z,79.49
2022-10-13T04:07:47.969Z,79.36
2022-10-13T04:11:02.164Z,79.29
2022-10-13T04:14:04.611Z,79.32
2022-10-13T04:17:07.514Z,79.22
2022-10-13T04:20:12.467Z,79.26
2022-10-13T04:23:15.340Z,79.12
2022-10-13T04:26:25.261Z,79.07
2022-10-13T04:29:28.491Z,79.05
2022-10-13T04:32:30.883Z,79.13
2022-10-13T04:35:42.833Z,79.12
2022-10-13T04:38:45.838Z,79.13
2022-10-13T04:41:48.699Z,79.17
2022-10-13T04:44:51.094Z,79.14
2022-10-13T04:47:56.862Z,79.08
2022-10-13T04:51:01.326Z,79.13
2022-10-13T04:54:05.687Z,79.22
2022-10-13T04:57:08.165Z,79.37
2022-10-13T05:00:11.709Z,79.32
2022-10-13T05:03:14.161Z,79.31
2022-10-13T05:06:20.028Z,79.14
2022-10-13T05:09:23.620Z,79.22
2022-10-13T05:12:26.692Z,79.36
2022-10-13T05:15:29.133Z,79.35
2022-10-13T05:18:32.067Z,79.35
2022-10-13T05:21:34.861Z,79.24
2022-10-13T05:24:38.555Z,79.07
2022-10-13T05:27:41.440Z,78.86
2022-10-13T05:30:45.864Z,78.60
2022-10-13T05:33:49.860Z,78.62
2022-10-13T05:36:55.978Z,78.54
2022-10-13T05:39:58.381Z,78.25
2022-10-13T05:43:01.268Z,77.98
2022-10-13T05:46:04.209Z,77.93
2022-10-13T05:49:11.930Z,77.59
2022-10-13T05:52:17.250Z,77.31
2022-10-13T05:55:20.435Z,76.77
2022-10-13T05:58:25.288Z,76.09
2022-10-13T06:01:32.960Z,75.78
2022-10-13T06:04:44.989Z,75.65
2022-10-13T06:07:48.246Z,75.21
2022-10-13T06:10:51.204Z,75.23
2022-10-13T06:13:57.658Z,74.98
2022-10-13T06:17:00.663Z,74.51
2022-10-13T06:20:06.079Z,73.68
2022-10-13T06:23:09.507Z,73.08
2022-10-13T06:26:12.239Z,72.92
2022-10-13T06:29:15.205Z,72.71
2022-10-13T06:32:19.177Z,72.60
2022-10-13T06:35:25.200Z,72.37
2022-10-13T06:38:27.920Z,72.15
2022-10-13T06:41:32.259Z,71.72
2022-10-13T06:44:34.946Z,71.85
2022-10-13T06:47:38.020Z,71.80
2022-10-13T06:50:42.995Z,71.69
2022-10-13T06:53:45.963Z,70.82
2022-10-13T06:56:49.929Z,69.72
2022-10-13T06:59:54.229Z,69.65
2022-10-13T07:03:01.813Z,69.73
2022-10-13T07:06:05.912Z,69.02
2022-10-13T07:09:09.129Z,68.33
2022-10-13T07:12:13.726Z,66.84
2022-10-13T07:15:18.239Z,66.43
2022-10-13T07:18:21.106Z,65.26
2022-10-13T07:21:24.000Z,63.91
2022-10-13T07:24:26.855Z,62.61
2022-10-13T07:27:29.629Z,61.87
2022-10-13T07:30:32.597Z,60.85
2022-10-13T07:33:36.396Z,59.36
2022-10-13T07:36:41.666Z,56.29
2022-10-13T07:39:44.605Z,54.93
2022-10-13T07:42:49.295Z,53.09
2022-10-13T07:45:53.457Z,49.45
2022-10-13T07:48:56.253Z,43.05
2022-10-13T07:51:58.964Z,38.73
2022-10-13T07:55:01.859Z,32.88
2022-10-13T07:58:04.691Z,27.15
2022-10-13T08:01:10.627Z,22.90
2022-10-13T08:04:19.423Z,20.15
2022-10-13T08:07:22.630Z,20.29
2022-10-13T08:10:25.968Z,19.93
2022-10-13T08:13:28.495Z,21.50
2022-10-13T08:16:32.544Z,22.60
2022-10-13T08:19:35.065Z,23.55
2022-10-13T08:22:38.053Z,23.75
2022-10-13T08:25:43.148Z,24.80
2022-10-13T08:29:02.796Z,25.35
2022-10-13T08:32:10.037Z,23.62
2022-10-13T08:35:14.589Z,23.19
2022-10-13T08:38:17.136Z,22.35
2022-10-13T08:41:25.467Z,20.83
2022-10-13T08:48:13.954Z,20.87
2022-10-13T08:51:17.101Z,20.32
2022-10-13T08:54:24.660Z,20.84
2022-10-13T08:57:27.343Z,19.96
2022-10-13T09:00:31.833Z,19.12
2022-10-13T09:03:58.571Z,20.18
2022-10-13T09:07:13.825Z,21.16
2022-10-13T09:10:18.719Z,21.88
2022-10-13T09:13:21.957Z,22.98
2022-10-13T09:16:34.856Z,23.75
2022-10-13T09:19:38.338Z,24.65
2022-10-13T09:22:41.303Z,25.00
2022-10-13T09:25:48.491Z,25.48
2022-10-13T09:28:52.502Z,25.51
2022-10-13T09:32:13.663Z,25.51
2022-10-13T09:35:22.600Z,25.18
2022-10-13T09:38:28.251Z,25.92
2022-10-13T09:41:31.510Z,26.13
2022-10-13T09:44:34.594Z,25.65
2022-10-13T09:47:38.157Z,25.58
2022-10-13T09:50:49.690Z,25.92
2022-10-13T09:53:52.615Z,25.59
2022-10-13T09:57:03.797Z,25.42
2022-10-13T10:00:42.506Z,24.96
2022-10-13T10:03:46.461Z,24.98
2022-10-13T10:06:49.161Z,25.13
2022-10-13T10:09:58.531Z,25.14
2022-10-13T10:13:02.158Z,24.54
2022-10-13T10:16:31.386Z,24.82
2022-10-13T10:19:55.228Z,24.59
2022-10-13T10:23:26.393Z,24.92
2022-10-13T10:26:56.554Z,25.53
2022-10-13T10:30:05.149Z,25.87
2022-10-13T10:33:21.533Z,26.03
2022-10-13T10:36:40.505Z,25.92
2022-10-13T10:39:50.764Z,25.87
2022-10-13T10:43:17.326Z,25.74
2022-10-13T10:46:25.856Z,25.69
2022-10-13T10:49:32.656Z,26.02
2022-10-13T10:52:56.651Z,26.58
2022-10-13T10:56:32.499Z,26.89
2022-10-13T11:00:06.597Z,26.51
2022-10-13T11:03:31.684Z,26.90
2022-10-13T11:06:39.743Z,26.46
2022-10-13T11:10:04.861Z,26.12
2022-10-13T11:13:17.427Z,26.26
2022-10-13T11:17:06.782Z,25.92
2022-10-13T11:20:22.006Z,26.17
2022-10-13T11:23:25.285Z,26.23
2022-10-13T11:26:32.506Z,26.40
2022-10-13T11:29:54.829Z,26.41
2022-10-13T11:32:57.741Z,25.66
2022-10-13T11:36:42.673Z,26.70
2022-10-13T11:40:04.613Z,27.08
2022-10-13T11:43:35.759Z,26.75
2022-10-13T11:47:12.185Z,26.78
2022-10-13T11:50:34.937Z,27.24
2022-10-13T11:54:03.415Z,27.51
2022-10-13T11:57:25.719Z,27.79
2022-10-13T12:00:28.610Z,26.88
2022-10-13T12:03:37.688Z,26.77
2022-10-13T12:06:42.258Z,27.02
2022-10-13T12:09:54.662Z,27.39
2022-10-13T12:12:59.404Z,27.74
2022-10-13T12:16:06.701Z,27.51
2022-10-13T12:19:20.577Z,28.12
2022-10-13T12:22:24.070Z,28.12
2022-10-13T12:25:30.402Z,28.53
2022-10-13T12:28:50.644Z,28.59
2022-10-13T12:31:54.352Z,28.23
2022-10-13T12:35:15.886Z,28.03
2022-10-13T12:38:20.541Z,28.14
2022-10-13T12:41:36.492Z,28.58
2022-10-13T12:44:39.914Z,28.74
2022-10-13T12:47:49.289Z,29.23
2022-10-13T12:50:52.043Z,31.64
2022-10-13T12:53:56.865Z,32.47
2022-10-13T12:57:28.934Z,33.66
2022-10-13T13:00:32.061Z,33.71
2022-10-13T13:03:38.836Z,33.09
2022-10-13T13:07:03.946Z,32.58
2022-10-13T13:10:18.633Z,32.25
2022-10-13T13:13:23.273Z,32.48
2022-10-13T13:16:25.735Z,33.14
2022-10-13T13:19:32.876Z,33.30
2022-10-13T13:25:38.453Z,33.76
2022-10-13T13:28:51.497Z,34.10
2022-10-13T13:31:54.610Z,34.79
2022-10-13T13:34:57.303Z,35.34
2022-10-13T13:38:00.766Z,35.69
2022-10-13T13:41:04.161Z,36.18
2022-10-13T13:44:07.606Z,37.46
2022-10-13T13:47:22.520Z,38.53
2022-10-13T13:50:28.585Z,38.47
2022-10-13T13:53:31.734Z,38.21
2022-10-13T13:56:34.767Z,38.20
2022-10-13T13:59:39.456Z,38.48
2022-10-13T14:02:44.063Z,38.72
2022-10-13T14:05:47.630Z,38.79
2022-10-13T14:08:50.579Z,38.70
2022-10-13T14:11:53.406Z,39.68
2022-10-13T14:14:56.856Z,40.49
2022-10-13T14:17:59.617Z,40.98
2022-10-13T14:21:05.783Z,42.07
2022-10-13T14:24:10.513Z,42.61
2022-10-13T14:27:13.671Z,42.62
2022-10-13T14:30:16.636Z,43.14
2022-10-13T14:33:19.805Z,43.49
2022-10-13T14:36:22.629Z,43.65
2022-10-13T14:39:44.274Z,43.71
2022-10-13T14:42:47.046Z,43.66
2022-10-13T14:45:51.361Z,44.26
2022-10-13T14:48:56.109Z,44.23
2022-10-13T14:51:58.860Z,44.18
2022-10-13T14:55:01.545Z,44.54
2022-10-13T14:58:04.205Z,44.75
2022-10-13T15:01:07.326Z,44.94
2022-10-13T15:04:11.828Z,45.03
2022-10-13T15:07:17.233Z,44.93
2022-10-13T15:10:19.893Z,45.06
2022-10-13T15:13:22.749Z,45.37
2022-10-13T15:16:29.371Z,45.58
2022-10-13T15:19:32.361Z,45.82
2022-10-13T15:22:35.026Z,45.88
2022-10-13T15:25:37.714Z,46.03
2022-10-13T15:28:47.998Z,46.36
2022-10-13T15:31:50.844Z,46.65
2022-10-13T15:34:54.372Z,46.74
2022-10-13T15:37:57.109Z,47.05
2022-10-13T15:41:01.038Z,47.10
2022-10-13T15:44:04.003Z,47.33
2022-10-13T15:47:08.241Z,47.49
2022-10-13T15:50:11.712Z,47.50
2022-10-13T15:53:16.884Z,47.81
2022-10-13T15:56:20.296Z,48.38
2022-10-13T15:59:22.938Z,48.41
2022-10-13T16:02:25.710Z,48.59
2022-10-13T16:05:28.529Z,48.72
2022-10-13T16:08:31.197Z,48.97
2022-10-13T16:11:34.154Z,49.11
2022-10-13T16:14:36.935Z,49.19
2022-10-13T16:17:40.055Z,49.46
2022-10-13T16:20:45.412Z,49.68
2022-10-13T16:23:48.867Z,50.03
2022-10-13T16:26:51.376Z,50.36
2022-10-13T16:29:54.205Z,50.65
2022-10-13T16:32:57.134Z,51.02
2022-10-13T16:36:12.640Z,51.29
2022-10-13T16:39:15.910Z,51.63
2022-10-13T16:42:19.155Z,51.84
2022-10-13T16:45:41.338Z,52.09
2022-10-13T16:48:47.402Z,52.16
2022-10-13T16:51:50.061Z,52.19
2022-10-13T16:54:53.005Z,52.31
2022-10-13T16:57:55.794Z,52.27
2022-10-13T17:01:09.047Z,52.25
2022-10-13T17:04:12.160Z,52.36
2022-10-13T17:07:15.149Z,52.43
2022-10-13T17:10:17.867Z,52.69
2022-10-13T17:13:20.816Z,52.75
2022-10-13T17:16:23.990Z,52.93
2022-10-13T17:19:26.943Z,53.18
2022-10-13T17:22:29.425Z,53.69
2022-10-13T17:25:34.373Z,54.26
2022-10-13T17:28:37.865Z,54.88
2022-10-13T17:31:42.115Z,55.53
2022-10-13T17:34:45.199Z,56.06
2022-10-13T17:37:49.807Z,56.41
2022-10-13T17:40:58.781Z,56.85
2022-10-13T17:44:02.874Z,57.23
2022-10-13T17:47:05.344Z,57.64
2022-10-13T17:50:08.481Z,57.82
2022-10-13T17:53:11.259Z,58.00
2022-10-13T17:56:16.834Z,58.23
2022-10-13T17:59:20.210Z,58.56
2022-10-13T18:02:23.164Z,58.72
2022-10-13T18:05:25.923Z,58.85
2022-10-13T18:08:28.857Z,59.17
2022-10-13T18:11:32.794Z,59.43
2022-10-13T18:14:35.426Z,59.68
2022-10-13T18:17:38.356Z,59.57
2022-10-13T18:20:40.920Z,59.81
2022-10-13T18:23:44.035Z,60.13
2022-10-13T18:26:46.967Z,60.33
2022-10-13T18:29:49.637Z,60.53
2022-10-13T18:32:52.564Z,60.76
2022-10-13T18:35:55.299Z,60.95
2022-10-13T18:39:21.532Z,61.16
2022-10-13T18:42:24.363Z,61.35
2022-10-13T18:45:27.210Z,61.67
2022-10-13T18:48:29.984Z,61.98
2022-10-13T18:51:36.335Z,62.39
2022-10-13T18:54:39.766Z,62.73
2022-10-13T18:57:42.496Z,63.05
2022-10-13T19:00:45.529Z,63.38
2022-10-13T19:03:50.963Z,63.76
2022-10-13T19:06:54.071Z,64.01
2022-10-13T19:09:56.793Z,64.23
2022-10-13T19:12:59.545Z,64.41
2022-10-13T19:16:04.992Z,64.58
2022-10-13T19:19:10.624Z,64.76
2022-10-13T19:22:13.608Z,64.88
2022-10-13T19:25:16.589Z,65.12
2022-10-13T19:28:19.655Z,65.27
2022-10-13T19:31:24.863Z,65.47
2022-10-13T19:34:28.616Z,65.60
2022-10-13T19:37:32.239Z,65.64
2022-10-13T19:40:37.801Z,65.79
2022-10-13T19:43:44.310Z,65.82
2022-10-13T19:46:47.734Z,65.87
2022-10-13T19:49:50.524Z,65.95
2022-10-13T19:52:53.265Z,66.23
2022-10-13T19:55:56.159Z,66.21
2022-10-13T19:58:59.583Z,66.14
2022-10-13T20:02:03.091Z,66.39
2022-10-13T20:05:06.531Z,66.48
2022-10-13T20:08:11.119Z,66.50
2022-10-13T20:11:22.397Z,66.55
2022-10-13T20:14:26.615Z,66.61
2022-10-13T20:17:29.697Z,66.72
2022-10-13T20:20:34.383Z,66.83
2022-10-13T20:23:37.534Z,66.97
2022-10-13T20:26:41.086Z,67.00
2022-10-13T20:29:44.061Z,67.00
2022-10-13T20:32:46.545Z,67.07
2022-10-13T20:35:49.468Z,67.19
2022-10-13T20:38:52.708Z,67.30
2022-10-13T20:41:55.872Z,67.30
2022-10-13T20:44:58.447Z,67.43
2022-10-13T20:48:01.416Z,67.50
2022-10-13T20:51:07.092Z,67.36
2022-10-13T20:54:12.152Z,67.36
2022-10-13T20:57:14.969Z,67.41
2022-10-13T21:00:20.432Z,67.55
2022-10-13T21:03:24.362Z,67.56
2022-10-13T21:06:27.577Z,67.61
2022-10-13T21:09:32.120Z,67.67
2022-10-13T21:12:35.036Z,67.67
2022-10-13T21:15:39.484Z,67.80
2022-10-13T21:18:49.086Z,67.84
2022-10-13T21:21:52.484Z,67.87
2022-10-13T21:24:55.584Z,68.00
2022-10-13T21:27:58.774Z,68.22
2022-10-13T21:31:12.971Z,68.16
2022-10-13T21:34:15.794Z,68.22
2022-10-13T21:37:18.956Z,68.41
2022-10-13T21:40:21.533Z,68.49
2022-10-13T21:43:24.439Z,68.50
2022-10-13T21:46:29.743Z,68.62
2022-10-13T21:49:33.873Z,68.72
2022-10-13T21:52:36.424Z,68.82
2022-10-13T21:55:39.362Z,68.93
2022-10-13T21:58:42.325Z,69.06
2022-10-13T22:01:45.509Z,69.21
2022-10-13T22:04:49.382Z,69.37
2022-10-13T22:07:52.932Z,69.37
2022-10-13T22:10:58.792Z,69.38
2022-10-13T22:14:01.719Z,69.35
2022-10-13T22:17:04.589Z,69.40
2022-10-13T22:20:07.537Z,69.37
2022-10-13T22:23:10.308Z,69.44
2022-10-13T22:26:14.031Z,69.55
2022-10-13T22:29:19.462Z,69.58
2022-10-13T22:32:23.119Z,69.67
2022-10-13T22:35:25.848Z,69.74
2022-10-13T22:38:28.694Z,69.72
2022-10-13T22:41:34.213Z,69.72
2022-10-13T22:44:36.828Z,69.97
2022-10-13T22:47:39.508Z,70.03
2022-10-13T22:50:42.129Z,70.05
2022-10-13T22:53:45.003Z,70.29
2022-10-13T22:56:47.643Z,70.29
2022-10-13T22:59:50.433Z,70.26
2022-10-13T23:02:53.014Z,70.15
2022-10-13T23:05:55.720Z,70.12
2022-10-13T23:09:04.018Z,70.31
2022-10-13T23:12:07.014Z,70.41
2022-10-13T23:15:11.382Z,70.38
2022-10-13T23:18:14.464Z,70.47
2022-10-13T23:21:19.451Z,70.49
2022-10-13T23:24:22.201Z,70.69
2022-10-13T23:27:24.983Z,70.84
2022-10-13T23:30:28.163Z,70.90
2022-10-13T23:33:31.164Z,71.02
2022-10-13T23:36:33.912Z,71.06
2022-10-13T23:39:36.866Z,71.13
2022-10-13T23:42:39.676Z,71.33
2022-10-13T23:45:42.680Z,71.32
2022-10-13T23:48:47.602Z,71.54
2022-10-13T23:51:50.682Z,71.64
2022-10-13T23:54:53.336Z,71.50
2022-10-13T23:57:57.389Z,71.72
